createdAt,value
2022-11-29T00:01:11.042Z,100145.28
2022-11-29T00:03:37.640Z,100143.34
2022-11-29T00:06:08.965Z,100141.66
2022-11-29T00:08:36.544Z,100139.91
2022-11-29T00:11:08.347Z,100140.94
2022-11-29T00:13:35.495Z,100149.34
2022-11-29T00:16:09.802Z,100140.81
2022-11-29T00:18:36.775Z,100136.44
2022-11-29T00:21:08.016Z,100132.81
2022-11-29T00:23:35.597Z,100134.66
2022-11-29T00:26:08.723Z,100140.88
2022-11-29T00:28:36.102Z,100136.44
2022-11-29T00:31:19.069Z,100138.69
2022-11-29T00:33:45.644Z,100138.31
2022-11-29T00:36:12.908Z,100144.66
2022-11-29T00:38:39.524Z,100133.91
2022-11-29T00:41:06.933Z,100139.88
2022-11-29T00:43:33.754Z,100135.34
2022-11-29T00:46:00.511Z,100137.19
2022-11-29T00:48:27.066Z,100137.03
2022-11-29T00:50:53.681Z,100136.44
2022-11-29T00:53:20.228Z,100134.63
2022-11-29T00:55:51.157Z,100127.25
2022-11-29T00:58:18.299Z,100135.34
2022-11-29T01:00:44.984Z,100135.91
2022-11-29T01:03:11.675Z,100137.75
2022-11-29T01:05:38.227Z,100125.28
2022-11-29T01:08:04.948Z,100130.41
2022-11-29T01:10:31.710Z,100130.53
2022-11-29T01:12:58.217Z,100134.13
2022-11-29T01:15:24.819Z,100130.69
2022-11-29T01:17:51.486Z,100136.75
2022-11-29T01:20:18.284Z,100144.50
2022-11-29T01:22:45.129Z,100142.69
2022-11-29T01:25:13.118Z,100137.75
2022-11-29T01:27:39.675Z,100147.97
2022-11-29T01:30:08.270Z,100142.78
2022-11-29T01:32:35.919Z,100142.94
2022-11-29T01:35:02.785Z,100144.31
2022-11-29T01:37:29.721Z,100144.41
2022-11-29T01:39:56.446Z,100148.63
2022-11-29T01:42:23.186Z,100149.75
2022-11-29T01:44:49.652Z,100143.53
2022-11-29T01:47:18.570Z,100146.63
2022-11-29T01:49:49.433Z,100146.25
2022-11-29T01:52:32.731Z,100147.13
2022-11-29T01:55:03.277Z,100145.34
2022-11-29T01:57:31.275Z,100145.03
2022-11-29T02:00:03.336Z,100143.63
2022-11-29T02:02:35.711Z,100146.25
2022-11-29T02:05:03.070Z,100142.75
2022-11-29T02:07:29.668Z,100147.25
2022-11-29T02:09:56.152Z,100150.88
2022-11-29T02:12:58.122Z,100154.53
2022-11-29T02:15:54.013Z,100153.25
2022-11-29T02:18:41.407Z,100152.28
2022-11-29T02:21:14.247Z,100157.56
2022-11-29T02:24:34.582Z,100161.88
2022-11-29T02:27:16.223Z,100163.34
2022-11-29T02:30:01.072Z,100161.88
2022-11-29T02:32:54.364Z,100170.44
2022-11-29T02:35:41.786Z,100171.47
2022-11-29T02:38:14.205Z,100171.47
2022-11-29T02:41:22.688Z,100170.16
2022-11-29T02:44:14.019Z,100164.13
2022-11-29T02:47:08.071Z,100166.09
2022-11-29T02:49:53.117Z,100172.13
2022-11-29T02:52:30.193Z,100177.78
2022-11-29T02:55:21.145Z,100172.19
2022-11-29T02:58:02.402Z,100176.19
2022-11-29T03:00:29.801Z,100181.56
2022-11-29T03:03:21.170Z,100190.22
2022-11-29T03:06:01.198Z,100184.97
2022-11-29T03:08:36.873Z,100183.13
2022-11-29T03:11:21.544Z,100186.53
2022-11-29T03:14:04.841Z,100184.75
2022-11-29T03:16:42.857Z,100189.09
2022-11-29T03:19:34.388Z,100197.66
2022-11-29T03:22:39.099Z,100198.00
2022-11-29T03:25:20.545Z,100201.03
2022-11-29T03:28:01.134Z,100199.59
2022-11-29T03:30:29.235Z,100193.63
2022-11-29T03:33:21.517Z,100201.56
2022-11-29T03:35:58.243Z,100201.63
2022-11-29T03:38:40.566Z,100203.41
2022-11-29T03:41:10.067Z,100209.78
2022-11-29T03:43:42.776Z,100204.28
2022-11-29T03:46:21.243Z,100200.69
2022-11-29T03:48:53.227Z,100206.91
2022-11-29T03:51:32.754Z,100208.75
2022-11-29T03:54:08.194Z,100211.31
2022-11-29T03:56:37.917Z,100207.75
2022-11-29T03:59:10.690Z,100203.91
2022-11-29T04:01:49.314Z,100212.75
2022-11-29T04:04:41.805Z,100209.97
2022-11-29T04:07:35.473Z,100210.84
2022-11-29T04:10:20.410Z,100211.72
2022-11-29T04:13:08.578Z,100209.97
2022-11-29T04:16:13.472Z,100207.44
2022-11-29T04:18:48.702Z,100207.69
2022-11-29T04:21:42.583Z,100214.81
2022-11-29T04:24:46.814Z,100212.59
2022-11-29T04:28:02.978Z,100224.44
2022-11-29T04:30:53.185Z,100222.84
2022-11-29T04:33:22.791Z,100219.75
2022-11-29T04:35:58.155Z,100224.00
2022-11-29T04:38:27.333Z,100231.06
2022-11-29T04:40:59.764Z,100231.88
2022-11-29T04:43:44.503Z,100233.47
2022-11-29T04:46:38.315Z,100232.06
2022-11-29T04:49:40.373Z,100239.78
2022-11-29T04:52:23.823Z,100240.91
2022-11-29T04:55:05.265Z,100237.06
2022-11-29T04:57:47.535Z,100237.97
2022-11-29T05:00:19.353Z,100234.31
2022-11-29T05:03:07.333Z,100236.91
2022-11-29T05:05:52.513Z,100236.31
2022-11-29T05:08:59.180Z,100246.81
2022-11-29T05:11:44.599Z,100247.88
2022-11-29T05:14:39.361Z,100243.41
2022-11-29T05:17:33.380Z,100245.81
2022-11-29T05:20:08.798Z,100248.63
2022-11-29T05:22:54.006Z,100253.06
2022-11-29T05:25:44.769Z,100257.28
2022-11-29T05:28:24.604Z,100262.28
2022-11-29T05:31:03.950Z,100257.84
2022-11-29T05:33:55.304Z,100266.59
2022-11-29T05:36:42.509Z,100258.91
2022-11-29T05:39:30.696Z,100257.28
2022-11-29T05:42:07.953Z,100259.06
2022-11-29T05:44:41.937Z,100265.00
2022-11-29T05:47:10.204Z,100259.78
2022-11-29T05:49:42.417Z,100264.59
2022-11-29T05:52:30.703Z,100261.72
2022-11-29T05:55:25.237Z,100272.03
2022-11-29T05:58:42.264Z,100269.41
2022-11-29T06:01:25.662Z,100269.16
2022-11-29T06:04:09.122Z,100274.78
2022-11-29T06:07:24.099Z,100271.84
2022-11-29T06:10:02.058Z,100271.00
2022-11-29T06:12:35.198Z,100277.88
2022-11-29T06:15:30.083Z,100271.84
2022-11-29T06:18:08.744Z,100278.66
2022-11-29T06:20:44.337Z,100284.88
2022-11-29T06:23:29.537Z,100289.16
2022-11-29T06:26:11.298Z,100284.03
2022-11-29T06:28:57.521Z,100293.31
2022-11-29T06:31:31.290Z,100298.03
2022-11-29T06:34:10.234Z,100300.22
2022-11-29T06:36:51.054Z,100298.66
2022-11-29T06:39:17.822Z,100302.13
2022-11-29T06:41:44.432Z,100307.53
2022-11-29T06:44:11.378Z,100305.09
2022-11-29T06:46:46.389Z,100311.50
2022-11-29T06:49:40.039Z,100310.78
2022-11-29T06:52:20.582Z,100308.22
2022-11-29T06:54:59.816Z,100311.16
2022-11-29T06:57:58.481Z,100318.34
2022-11-29T07:00:42.571Z,100310.91
2022-11-29T07:03:21.414Z,100324.16
2022-11-29T07:05:48.241Z,100316.81
2022-11-29T07:08:20.818Z,100319.66
2022-11-29T07:10:50.447Z,100316.50
2022-11-29T07:13:18.786Z,100324.44
2022-11-29T07:16:08.361Z,100325.41
2022-11-29T07:19:13.742Z,100329.91
2022-11-29T07:21:55.314Z,100335.91
2022-11-29T07:24:43.511Z,100337.44
2022-11-29T07:27:44.738Z,100343.56
2022-11-29T07:30:35.654Z,100342.00
2022-11-29T07:33:28.813Z,100347.19
2022-11-29T07:36:20.094Z,100345.34
2022-11-29T07:39:45.289Z,100347.00
2022-11-29T07:42:24.629Z,100349.22
2022-11-29T07:45:33.398Z,100358.03
2022-11-29T07:48:00.313Z,100355.22
2022-11-29T07:50:27.866Z,100365.94
2022-11-29T07:52:55.564Z,100362.25
2022-11-29T07:55:25.674Z,100365.13
2022-11-29T07:57:53.276Z,100372.09
2022-11-29T08:00:20.925Z,100371.06
2022-11-29T08:02:49.801Z,100365.69
2022-11-29T08:05:17.183Z,100376.19
2022-11-29T08:07:44.127Z,100377.03
2022-11-29T08:10:15.560Z,100371.84
2022-11-29T08:12:47.956Z,100374.47
2022-11-29T08:15:15.195Z,100373.72
2022-11-29T08:17:41.727Z,100375.75
2022-11-29T08:20:10.322Z,100374.34
2022-11-29T08:22:36.956Z,100382.16
2022-11-29T08:25:04.685Z,100374.59
2022-11-29T08:27:31.793Z,100379.34
2022-11-29T08:29:58.398Z,100380.59
2022-11-29T08:32:25.816Z,100373.66
2022-11-29T08:34:52.867Z,100374.63
2022-11-29T08:37:19.484Z,100375.50
2022-11-29T08:39:45.999Z,100381.09
2022-11-29T08:42:12.574Z,100384.59
2022-11-29T08:44:39.123Z,100384.06
2022-11-29T08:47:24.152Z,100382.22
2022-11-29T08:50:02.513Z,100382.19
2022-11-29T08:52:56.754Z,100388.16
2022-11-29T08:55:26.520Z,100382.53
2022-11-29T08:58:00.035Z,100382.47
2022-11-29T09:00:26.539Z,100388.56
2022-11-29T09:02:53.006Z,100390.84
2022-11-29T09:05:19.680Z,100392.69
2022-11-29T09:07:46.952Z,100397.44
2022-11-29T09:10:13.630Z,100400.69
2022-11-29T09:12:40.900Z,100408.41
2022-11-29T09:15:10.123Z,100406.97
2022-11-29T09:17:36.749Z,100406.59
2022-11-29T09:20:04.568Z,100408.16
2022-11-29T09:22:31.534Z,100411.94
2022-11-29T09:24:58.107Z,100411.59
2022-11-29T09:27:24.744Z,100410.25
2022-11-29T09:29:51.236Z,100411.06
2022-11-29T09:32:17.742Z,100413.88
2022-11-29T09:34:44.616Z,100404.75
2022-11-29T09:37:11.349Z,100405.22
2022-11-29T09:39:38.288Z,100401.53
2022-11-29T09:42:22.895Z,100412.78
2022-11-29T09:45:02.577Z,100417.03
2022-11-29T09:48:04.726Z,100409.03
2022-11-29T09:50:35.472Z,100409.34
2022-11-29T09:53:43.932Z,100413.91
2022-11-29T09:56:44.908Z,100409.50
2022-11-29T09:59:42.290Z,100408.78
2022-11-29T10:02:31.834Z,100407.31
2022-11-29T10:05:12.048Z,100410.47
2022-11-29T10:07:46.115Z,100404.56
2022-11-29T10:10:26.017Z,100407.56
2022-11-29T10:13:00.404Z,100412.91
2022-11-29T10:15:34.263Z,100409.47
2022-11-29T10:18:16.966Z,100412.94
2022-11-29T10:20:49.004Z,100403.91
2022-11-29T10:23:24.146Z,100413.94
2022-11-29T10:25:53.549Z,100411.69
2022-11-29T10:28:23.986Z,100410.00
2022-11-29T10:30:54.679Z,100412.19
2022-11-29T10:33:29.927Z,100412.69
2022-11-29T10:35:59.249Z,100410.09
2022-11-29T10:38:31.253Z,100403.94
2022-11-29T10:41:04.831Z,100404.91
2022-11-29T10:43:31.536Z,100399.66
2022-11-29T10:45:58.796Z,100409.16
2022-11-29T10:48:28.967Z,100410.09
2022-11-29T10:50:55.711Z,100410.09
2022-11-29T10:53:26.897Z,100405.47
2022-11-29T10:55:53.586Z,100415.97
2022-11-29T10:58:28.420Z,100412.41
2022-11-29T11:01:06.969Z,100411.28
2022-11-29T11:04:04.387Z,100408.81
2022-11-29T11:06:51.521Z,100413.50
2022-11-29T11:09:40.324Z,100406.50
2022-11-29T11:12:18.957Z,100418.38
2022-11-29T11:14:47.107Z,100420.38
2022-11-29T11:17:26.260Z,100419.66
2022-11-29T11:20:04.606Z,100413.34
2022-11-29T11:22:33.690Z,100420.25
2022-11-29T11:25:04.732Z,100414.44
2022-11-29T11:27:35.160Z,100421.94
2022-11-29T11:30:03.738Z,100418.91
2022-11-29T11:32:30.398Z,100421.47
2022-11-29T11:35:00.460Z,100419.44
2022-11-29T11:37:32.516Z,100428.00
2022-11-29T11:40:26.451Z,100419.69
2022-11-29T11:42:53.063Z,100425.84
2022-11-29T11:45:25.647Z,100418.59
2022-11-29T11:47:58.163Z,100422.44
2022-11-29T11:50:29.643Z,100420.53
2022-11-29T11:53:00.677Z,100431.75
2022-11-29T11:55:40.565Z,100430.41
2022-11-29T11:58:13.168Z,100437.06
2022-11-29T12:01:07.136Z,100431.88
2022-11-29T12:03:50.051Z,100431.75
2022-11-29T12:06:38.314Z,100428.13
2022-11-29T12:09:20.180Z,100437.09
2022-11-29T12:11:51.289Z,100431.88
2022-11-29T12:14:49.969Z,100432.38
2022-11-29T12:17:52.852Z,100443.47
2022-11-29T12:20:22.229Z,100434.66
2022-11-29T12:23:13.801Z,100444.94
2022-11-29T12:25:44.702Z,100439.84
2022-11-29T12:28:18.711Z,100435.16
2022-11-29T12:31:06.939Z,100449.19
2022-11-29T12:33:52.251Z,100445.16
2022-11-29T12:36:37.563Z,100450.06
2022-11-29T12:39:32.425Z,100446.16
2022-11-29T12:42:09.414Z,100447.41
2022-11-29T12:45:23.247Z,100445.09
2022-11-29T12:47:55.855Z,100455.72
2022-11-29T12:50:31.333Z,100446.09
2022-11-29T12:53:27.652Z,100455.72
2022-11-29T12:56:03.638Z,100458.91
2022-11-29T12:58:45.999Z,100454.34
2022-11-29T13:01:33.227Z,100459.53
2022-11-29T13:04:17.984Z,100457.72
2022-11-29T13:06:49.444Z,100461.56
2022-11-29T13:09:35.870Z,100464.50
2022-11-29T13:12:13.222Z,100468.75
2022-11-29T13:14:54.331Z,100464.31
2022-11-29T13:17:32.762Z,100467.69
2022-11-29T13:20:19.684Z,100471.16
2022-11-29T13:23:04.360Z,100469.59
2022-11-29T13:25:40.498Z,100470.69
2022-11-29T13:28:30.302Z,100483.69
2022-11-29T13:31:01.643Z,100478.94
2022-11-29T13:33:36.787Z,100478.56
2022-11-29T13:36:14.581Z,100478.88
2022-11-29T13:38:45.861Z,100485.06
2022-11-29T13:41:35.044Z,100486.97
2022-11-29T13:44:20.550Z,100489.19
2022-11-29T13:46:58.093Z,100488.59
2022-11-29T13:49:49.498Z,100494.84
2022-11-29T13:52:39.504Z,100493.53
2022-11-29T13:55:12.189Z,100493.28
2022-11-29T14:00:44.600Z,100501.59
2022-11-29T14:03:23.433Z,100495.38
2022-11-29T14:06:02.235Z,100502.44
2022-11-29T14:08:37.904Z,100499.16
2022-11-29T14:11:15.457Z,100499.63
2022-11-29T14:13:41.934Z,100495.16
2022-11-29T14:16:24.146Z,100497.81
2022-11-29T14:19:09.919Z,100500.56
2022-11-29T14:21:56.873Z,100501.34
2022-11-29T14:24:32.551Z,100503.53
2022-11-29T14:27:19.279Z,100504.28
2022-11-29T14:29:48.893Z,100503.06
2022-11-29T14:32:52.801Z,100509.47
2022-11-29T14:35:24.312Z,100506.94
2022-11-29T14:38:19.227Z,100507.19
2022-11-29T14:40:51.747Z,100505.63
2022-11-29T14:43:50.766Z,100501.28
2022-11-29T14:46:17.260Z,100503.88
2022-11-29T14:49:36.181Z,100504.72
2022-11-29T14:52:14.937Z,100512.78
2022-11-29T14:55:17.030Z,100521.69
2022-11-29T14:58:05.868Z,100514.56
2022-11-29T15:00:47.592Z,100515.53
2022-11-29T15:03:21.291Z,100520.78
2022-11-29T15:06:06.152Z,100525.28
2022-11-29T15:08:54.101Z,100520.09
2022-11-29T15:11:32.871Z,100522.91
2022-11-29T15:14:04.295Z,100519.06
2022-11-29T15:16:58.372Z,100525.84
2022-11-29T15:19:45.102Z,100523.88
2022-11-29T15:22:19.120Z,100531.00
2022-11-29T15:24:56.851Z,100532.59
2022-11-29T15:27:24.175Z,100538.09
2022-11-29T15:29:52.315Z,100541.47
2022-11-29T15:32:25.634Z,100543.34
2022-11-29T15:34:55.347Z,100547.88
2022-11-29T15:37:31.027Z,100546.09
2022-11-29T15:40:27.640Z,100546.03
2022-11-29T15:43:02.271Z,100552.31
2022-11-29T15:45:35.341Z,100557.75
2022-11-29T15:48:25.135Z,100554.84
2022-11-29T15:51:15.983Z,100556.25
2022-11-29T15:54:11.717Z,100564.63
2022-11-29T15:56:55.708Z,100564.63
2022-11-29T15:59:28.263Z,100568.09
2022-11-29T16:01:57.519Z,100562.06
2022-11-29T16:04:24.558Z,100564.69
2022-11-29T16:06:51.894Z,100571.88
2022-11-29T16:09:25.134Z,100563.88
2022-11-29T16:11:51.836Z,100570.88
2022-11-29T16:14:25.938Z,100589.44
2022-11-29T16:16:54.560Z,100578.16
2022-11-29T16:19:33.257Z,100587.69
2022-11-29T16:22:13.165Z,100582.47
2022-11-29T16:24:50.771Z,100582.59
2022-11-29T16:27:19.681Z,100588.53
2022-11-29T16:29:47.565Z,100587.06
2022-11-29T16:32:36.271Z,100591.28
2022-11-29T16:35:18.874Z,100602.50
2022-11-29T16:37:46.688Z,100600.38
2022-11-29T16:40:22.400Z,100603.72
2022-11-29T16:43:06.593Z,100602.75
2022-11-29T16:45:43.783Z,100609.84
2022-11-29T16:48:22.480Z,100608.78
2022-11-29T16:51:11.135Z,100608.97
2022-11-29T16:53:42.814Z,100616.44
2022-11-29T16:56:14.942Z,100617.34
2022-11-29T16:59:17.332Z,100615.69
2022-11-29T17:01:31.160Z,100613.97
2022-11-29T17:04:00.064Z,100613.16
2022-11-29T17:06:28.633Z,100610.72
2022-11-29T17:08:57.513Z,100615.66
2022-11-29T17:11:24.329Z,100620.78
2022-11-29T17:13:51.731Z,100621.31
2022-11-29T17:16:23.385Z,100620.34
2022-11-29T17:18:52.650Z,100627.38
2022-11-29T17:21:21.379Z,100633.63
2022-11-29T17:23:48.126Z,100633.59
2022-11-29T17:26:15.513Z,100633.75
2022-11-29T17:28:43.859Z,100625.72
2022-11-29T17:31:16.770Z,100640.53
2022-11-29T17:33:43.800Z,100635.41
2022-11-29T17:36:15.176Z,100632.97
2022-11-29T17:38:42.860Z,100633.59
2022-11-29T17:41:11.690Z,100637.09
2022-11-29T17:43:38.722Z,100639.84
2022-11-29T17:46:20.550Z,100653.94
2022-11-29T17:48:47.043Z,100656.19
2022-11-29T17:51:43.643Z,100651.88
2022-11-29T17:54:02.984Z,100649.19
2022-11-29T17:56:29.932Z,100663.47
2022-11-29T17:58:59.226Z,100659.41
2022-11-29T18:01:28.801Z,100658.94
2022-11-29T18:03:58.340Z,100664.72
2022-11-29T18:06:25.710Z,100664.97
2022-11-29T18:08:57.645Z,100664.53
2022-11-29T18:11:41.655Z,100665.09
2022-11-29T18:14:13.991Z,100664.84
2022-11-29T18:16:41.027Z,100666.97
2022-11-29T18:19:11.214Z,100660.38
2022-11-29T18:21:38.227Z,100666.72
2022-11-29T18:24:06.290Z,100667.09
2022-11-29T18:26:34.586Z,100667.91
2022-11-29T18:29:01.197Z,100669.84
2022-11-29T18:31:30.242Z,100671.50
2022-11-29T18:33:59.648Z,100673.09
2022-11-29T18:36:31.261Z,100678.06
2022-11-29T18:39:02.890Z,100668.69
2022-11-29T18:41:30.714Z,100666.97
2022-11-29T18:44:00.527Z,100673.34
2022-11-29T18:46:32.301Z,100677.47
2022-11-29T18:49:01.366Z,100668.69
2022-11-29T18:51:29.573Z,100671.31
2022-11-29T18:53:57.254Z,100669.50
2022-11-29T18:56:25.916Z,100670.47
2022-11-29T18:58:58.498Z,100670.56
2022-11-29T19:01:28.261Z,100676.63
2022-11-29T19:03:57.141Z,100679.06
2022-11-29T19:06:26.770Z,100681.88
2022-11-29T19:08:54.715Z,100678.28
2022-11-29T19:11:23.236Z,100679.63
2022-11-29T19:13:56.569Z,100680.34
2022-11-29T19:16:24.720Z,100678.47
2022-11-29T19:18:56.341Z,100686.34
2022-11-29T19:21:24.676Z,100686.03
2022-11-29T19:23:56.534Z,100685.13
2022-11-29T19:26:26.696Z,100693.03
2022-11-29T19:28:54.134Z,100689.78
2022-11-29T19:31:26.951Z,100691.47
2022-11-29T19:33:54.639Z,100691.34
2022-11-29T19:36:25.378Z,100687.78
2022-11-29T19:38:54.135Z,100689.72
2022-11-29T19:41:23.911Z,100691.75
2022-11-29T19:43:51.117Z,100700.19
2022-11-29T19:46:23.656Z,100704.03
2022-11-29T19:48:54.728Z,100690.69
2022-11-29T19:51:22.769Z,100694.09
2022-11-29T19:53:53.230Z,100696.06
2022-11-29T19:56:23.755Z,100702.19
2022-11-29T19:58:50.882Z,100698.72
2022-11-29T20:01:35.936Z,100703.97
2022-11-29T20:04:06.523Z,100704.94
2022-11-29T20:06:33.061Z,100699.69
2022-11-29T20:08:59.681Z,100707.66
2022-11-29T20:11:27.167Z,100705.94
2022-11-29T20:13:57.348Z,100706.91
2022-11-29T20:16:25.167Z,100709.47
2022-11-29T20:18:52.956Z,100714.88
2022-11-29T20:21:25.223Z,100720.59
2022-11-29T20:24:04.687Z,100723.66
2022-11-29T20:26:34.474Z,100729.75
2022-11-29T20:29:02.182Z,100725.44
2022-11-29T20:31:33.165Z,100726.16
2022-11-29T20:34:00.570Z,100726.94
2022-11-29T20:36:35.988Z,100726.59
2022-11-29T20:39:02.496Z,100720.19
2022-11-29T20:41:56.014Z,100727.50
2022-11-29T20:44:37.941Z,100727.59
2022-11-29T20:47:19.621Z,100724.88
2022-11-29T20:49:47.565Z,100730.31
2022-11-29T20:53:04.101Z,100731.13
2022-11-29T20:55:30.702Z,100732.56
2022-11-29T20:57:57.354Z,100732.78
2022-11-29T21:00:24.111Z,100733.03
2022-11-29T21:02:50.614Z,100737.97
2022-11-29T21:05:17.352Z,100736.22
2022-11-29T21:07:45.727Z,100736.41
2022-11-29T21:10:15.342Z,100741.78
2022-11-29T21:12:42.886Z,100736.31
2022-11-29T21:15:11.059Z,100742.31
2022-11-29T21:17:38.047Z,100742.53
2022-11-29T21:20:05.486Z,100735.34
2022-11-29T21:22:53.227Z,100741.59
2022-11-29T21:25:41.079Z,100740.91
2022-11-29T21:28:15.859Z,100737.44
2022-11-29T21:30:43.534Z,100744.84
2022-11-29T21:33:11.231Z,100744.69
2022-11-29T21:35:39.883Z,100743.66
2022-11-29T21:38:12.896Z,100749.81
2022-11-29T21:40:39.567Z,100753.41
2022-11-29T21:43:06.079Z,100750.03
2022-11-29T21:45:32.688Z,100751.84
2022-11-29T21:48:02.427Z,100750.09
2022-11-29T21:50:28.983Z,100751.75
2022-11-29T21:52:55.504Z,100754.44
2022-11-29T21:55:22.106Z,100752.78
2022-11-29T21:57:48.699Z,100751.84
2022-11-29T22:00:15.692Z,100762.25
2022-11-29T22:02:42.341Z,100758.69
2022-11-29T22:05:09.669Z,100752.69
2022-11-29T22:07:36.472Z,100752.44
2022-11-29T22:10:09.960Z,100752.03
2022-11-29T22:12:38.304Z,100746.13
2022-11-29T22:15:05.369Z,100755.16
2022-11-29T22:17:31.823Z,100755.16
2022-11-29T22:19:58.446Z,100748.38
2022-11-29T22:22:28.214Z,100757.63
2022-11-29T22:24:54.947Z,100756.78
2022-11-29T22:27:21.440Z,100754.03
2022-11-29T22:29:47.971Z,100754.53
2022-11-29T22:32:14.691Z,100752.16
2022-11-29T22:34:41.266Z,100756.16
2022-11-29T22:37:07.769Z,100757.75
2022-11-29T22:39:34.242Z,100761.50
2022-11-29T22:42:00.790Z,100754.13
2022-11-29T22:44:27.278Z,100756.47
2022-11-29T22:46:54.042Z,100764.78
2022-11-29T22:49:20.632Z,100759.38
2022-11-29T22:51:47.225Z,100756.53
2022-11-29T22:54:16.357Z,100756.19
2022-11-29T22:56:44.728Z,100753.88
2022-11-29T22:59:11.258Z,100757.28
2022-11-29T23:01:39.938Z,100754.69
2022-11-29T23:04:08.198Z,100760.69
2022-11-29T23:06:37.982Z,100767.25
2022-11-29T23:09:15.793Z,100761.69
2022-11-29T23:11:46.553Z,100770.44
2022-11-29T23:14:13.554Z,100760.06
2022-11-29T23:16:40.336Z,100776.44
2022-11-29T23:19:06.922Z,100762.91
2022-11-29T23:21:36.214Z,100765.53
2022-11-29T23:24:03.221Z,100770.16
2022-11-29T23:26:36.340Z,100772.63
2022-11-29T23:29:04.479Z,100763.13
2022-11-29T23:31:31.664Z,100766.19
2022-11-29T23:33:58.220Z,100767.41
2022-11-29T23:36:24.965Z,100772.78
2022-11-29T23:38:51.590Z,100768.38
2022-11-29T23:41:18.398Z,100770.19
2022-11-29T23:43:44.962Z,100773.28
2022-11-29T23:46:17.529Z,100768.34
2022-11-29T23:48:44.553Z,100765.09
2022-11-29T23:51:11.847Z,100770.59
2022-11-29T23:53:39.132Z,100765.75
2022-11-29T23:56:10.317Z,100761.22
2022-11-29T23:58:37.989Z,100767.69
